Time,TemperatureF,DewpointF,PressureIn,WindDirection,WindDirectionDegrees,WindSpeedMPH,WindSpeedGustMPH,Humidity,HourlyPrecipIn,Conditions,Clouds,dailyrainin,SoftwareType,DateUTC
2013-02-03 00:00:00,9.6,3.0,29.99,NE,45,0.0,0.0,74,0.00,,---,0.00,VWS V14.01,2013-02-03 05:00:00,
2013-02-03 00:01:00,9.6,3.0,29.99,NE,45,0.0,0.0,74,0.00,,---,0.00,VWS V14.01,2013-02-03 05:01:00,
2013-02-03 00:03:00,9.6,3.0,29.99,NE,45,0.0,0.0,74,0.00,,---,0.00,VWS V14.01,2013-02-03 05:03:00,
2013-02-03 00:08:00,9.6,3.0,29.99,NE,45,0.0,0.0,74,0.00,,---,0.00,VWS V14.01,2013-02-03 05:08:00,
2013-02-03 00:13:00,9.6,3.0,29.99,NNE,22,0.0,0.0,74,0.00,,---,0.00,VWS V14.01,2013-02-03 05:13:00,
2013-02-03 00:18:00,9.6,3.0,29.99,NW,315,0.0,0.0,74,0.00,,---,0.00,VWS V14.01,2013-02-03 05:18:00,
2013-02-03 00:24:00,9.6,3.0,29.99,NNW,338,0.0,0.0,74,0.00,,---,0.00,VWS V14.01,2013-02-03 05:24:00,
2013-02-03 00:29:00,9.6,3.0,29.98,NW,315,0.0,0.0,74,0.00,,---,0.00,VWS V14.01,2013-02-03 05:29:00,
2013-02-03 00:34:00,10.0,3.4,29.98,North,0,0.0,0.0,74,0.00,,---,0.00,VWS V14.01,2013-02-03 05:34:00,
2013-02-03 00:39:00,10.0,3.4,29.98,North,0,0.0,0.0,74,0.00,,---,0.00,VWS V14.01,2013-02-03 05:39:00,
2013-02-03 00:44:00,10.0,3.4,29.98,NNW,338,0.0,0.0,74,0.00,,---,0.00,VWS V14.01,2013-02-03 05:44:00,
2013-02-03 00:49:00,10.0,3.4,29.98,North,0,0.0,0.0,74,0.00,,---,0.00,VWS V14.01,2013-02-03 05:49:00,
2013-02-03 00:54:00,10.0,3.4,29.98,NNW,338,0.0,0.0,74,0.00,,---,0.00,VWS V14.01,2013-02-03 05:54:00,
2013-02-03 00:59:00,10.0,3.1,29.98,NNW,338,0.0,0.0,73,0.00,,---,0.00,VWS V14.01,2013-02-03 05:59:00,
2013-02-03 01:04:00,10.0,3.1,29.97,NW,315,0.0,0.0,73,0.00,,---,0.00,VWS V14.01,2013-02-03 06:04:00,
2013-02-03 01:09:00,10.0,3.1,29.97,NNW,338,0.0,0.0,73,0.00,,---,0.00,VWS V14.01,2013-02-03 06:09:00,
2013-02-03 01:14:00,10.0,3.1,29.97,North,0,0.0,0.0,73,0.00,,---,0.00,VWS V14.01,2013-02-03 06:14:00,
2013-02-03 01:19:00,10.0,3.1,29.97,North,0,0.0,0.0,73,0.00,,---,0.00,VWS V14.01,2013-02-03 06:19:00,
2013-02-03 01:24:00,10.0,3.1,29.97,North,0,0.0,0.0,73,0.00,,---,0.00,VWS V14.01,2013-02-03 06:24:00,
2013-02-03 01:29:00,10.0,3.1,29.97,North,0,0.0,0.0,73,0.00,,---,0.00,VWS V14.01,2013-02-03 06:29:00,
2013-02-03 01:34:00,10.2,3.3,29.97,North,0,0.0,0.0,73,0.00,,---,0.00,VWS V14.01,2013-02-03 06:34:00,
2013-02-03 01:39:00,10.2,3.3,29.96,North,0,0.0,0.0,73,0.00,,---,0.00,VWS V14.01,2013-02-03 06:39:00,
2013-02-03 01:44:00,10.2,3.3,29.96,North,0,0.0,0.0,73,0.00,,---,0.00,VWS V14.01,2013-02-03 06:44:00,
2013-02-03 01:49:00,10.2,3.3,29.96,North,0,0.0,0.0,73,0.00,,---,0.00,VWS V14.01,2013-02-03 06:49:00,
2013-02-03 01:54:00,10.0,3.1,29.96,North,0,0.0,0.0,73,0.00,,---,0.00,VWS V14.01,2013-02-03 06:54:00,
2013-02-03 01:59:00,10.0,3.1,29.96,North,0,0.0,0.0,73,0.00,,---,0.00,VWS V14.01,2013-02-03 06:59:00,
2013-02-03 02:04:00,10.0,3.4,29.96,North,0,0.0,0.0,74,0.00,,---,0.00,VWS V14.01,2013-02-03 07:04:00,
2013-02-03 02:09:00,10.0,3.4,29.96,North,0,0.0,0.0,74,0.00,,---,0.00,VWS V14.01,2013-02-03 07:09:00,
2013-02-03 02:14:00,9.6,3.0,29.96,North,0,0.0,0.0,74,0.00,,---,0.00,VWS V14.01,2013-02-03 07:14:00,
2013-02-03 02:19:00,9.6,3.0,29.96,North,0,0.0,0.0,74,0.00,,---,0.00,VWS V14.01,2013-02-03 07:19:00,
2013-02-03 02:24:00,9.6,3.0,29.97,North,0,0.0,0.0,74,0.00,,---,0.00,VWS V14.01,2013-02-03 07:24:00,
2013-02-03 02:29:00,9.6,3.0,29.96,North,0,0.0,0.0,74,0.00,,---,0.00,VWS V14.01,2013-02-03 07:29:00,
2013-02-03 02:34:00,9.5,2.9,29.96,North,0,0.0,0.0,74,0.00,,---,0.00,VWS V14.01,2013-02-03 07:34:00,
2013-02-03 02:39:00,9.5,2.9,29.96,North,0,0.0,0.0,74,0.00,,---,0.00,VWS V14.01,2013-02-03 07:39:00,
2013-02-03 02:44:00,9.5,2.9,29.96,North,0,0.0,0.0,74,0.00,,---,0.00,VWS V14.01,2013-02-03 07:44:00,
2013-02-03 02:49:00,9.3,2.7,29.96,North,0,0.0,0.0,74,0.00,,---,0.00,VWS V14.01,2013-02-03 07:49:00,
2013-02-03 02:54:00,9.5,2.9,29.95,North,0,0.0,0.0,74,0.00,,---,0.00,VWS V14.01,2013-02-03 07:54:00,
2013-02-03 02:59:00,9.3,2.7,29.95,North,0,0.0,0.0,74,0.00,,---,0.00,VWS V14.01,2013-02-03 07:59:00,
2013-02-03 03:04:00,9.1,2.5,29.95,North,0,0.0,0.0,74,0.00,,---,0.00,VWS V14.01,2013-02-03 08:04:00,
2013-02-03 03:09:00,9.1,2.5,29.95,North,0,0.0,0.0,74,0.00,,---,0.00,VWS V14.01,2013-02-03 08:09:00,
2013-02-03 03:14:00,9.1,2.5,29.94,North,0,0.0,0.0,74,0.00,,---,0.00,VWS V14.01,2013-02-03 08:14:00,
2013-02-03 03:19:00,8.9,2.3,29.94,North,0,0.0,0.0,74,0.00,,---,0.00,VWS V14.01,2013-02-03 08:19:00,
2013-02-03 03:24:00,8.9,2.3,29.94,North,0,0.0,0.0,74,0.00,,---,0.00,VWS V14.01,2013-02-03 08:24:00,
2013-02-03 03:29:00,8.7,2.1,29.94,North,0,0.0,0.0,74,0.00,,---,0.00,VWS V14.01,2013-02-03 08:29:00,
2013-02-03 03:34:00,8.7,2.1,29.93,North,0,0.0,0.0,74,0.00,,---,0.00,VWS V14.01,2013-02-03 08:34:00,
2013-02-03 03:39:00,8.7,2.1,29.93,North,0,0.0,0.0,74,0.00,,---,0.00,VWS V14.01,2013-02-03 08:39:00,
2013-02-03 03:44:00,8.7,2.1,29.93,NNW,338,0.0,0.0,74,0.00,,---,0.00,VWS V14.01,2013-02-03 08:44:00,
2013-02-03 03:49:00,8.7,2.1,29.93,WNW,292,0.0,0.0,74,0.00,,---,0.00,VWS V14.01,2013-02-03 08:49:00,
2013-02-03 03:54:00,8.9,2.3,29.93,WNW,292,0.0,0.0,74,0.00,,---,0.00,VWS V14.01,2013-02-03 08:54:00,
2013-02-03 03:59:00,8.9,2.3,29.93,WNW,292,0.0,0.0,74,0.00,,---,0.00,VWS V14.01,2013-02-03 08:59:00,
2013-02-03 04:04:00,8.9,2.3,29.93,WNW,292,0.0,0.0,74,0.00,,---,0.00,VWS V14.01,2013-02-03 09:04:00,
2013-02-03 04:09:00,8.9,2.3,29.93,WNW,292,0.0,0.0,74,0.00,,---,0.00,VWS V14.01,2013-02-03 09:09:00,
2013-02-03 04:14:00,9.1,2.5,29.93,WNW,292,0.0,0.0,74,0.00,,---,0.00,VWS V14.01,2013-02-03 09:14:00,
2013-02-03 04:19:00,9.1,2.5,29.92,WNW,292,0.0,0.0,74,0.00,,---,0.00,VWS V14.01,2013-02-03 09:19:00,
2013-02-03 04:24:00,9.1,2.5,29.92,WNW,292,0.0,0.0,74,0.00,,---,0.00,VWS V14.01,2013-02-03 09:24:00,
2013-02-03 04:29:00,9.1,2.5,29.92,WNW,292,0.0,0.0,74,0.00,,---,0.00,VWS V14.01,2013-02-03 09:29:00,
2013-02-03 04:34:00,9.1,2.5,29.92,WNW,292,0.0,0.0,74,0.00,,---,0.00,VWS V14.01,2013-02-03 09:34:00,
2013-02-03 04:39:00,9.1,2.5,29.92,WSW,248,1.7,1.7,74,0.00,,---,0.00,VWS V14.01,2013-02-03 09:39:00,
2013-02-03 04:44:00,9.1,2.5,29.92,WSW,248,0.0,0.0,74,0.00,,---,0.00,VWS V14.01,2013-02-03 09:44:00,
2013-02-03 04:49:00,9.1,2.8,29.92,WSW,248,0.0,0.0,75,0.00,,---,0.00,VWS V14.01,2013-02-03 09:49:00,
2013-02-03 04:54:00,9.1,2.8,29.92,WSW,248,0.0,0.0,75,0.00,,---,0.00,VWS V14.01,2013-02-03 09:54:00,
2013-02-03 04:59:00,8.9,2.6,29.92,WSW,248,0.0,0.0,75,0.00,,---,0.00,VWS V14.01,2013-02-03 09:59:00,
2013-02-03 05:04:00,8.9,2.6,29.92,WSW,248,0.0,0.0,75,0.00,,---,0.00,VWS V14.01,2013-02-03 10:04:00,
2013-02-03 05:09:00,8.9,2.6,29.92,WSW,248,0.0,0.0,75,0.00,,---,0.00,VWS V14.01,2013-02-03 10:09:00,
2013-02-03 05:14:00,8.9,2.6,29.92,WSW,248,0.0,0.0,75,0.00,,---,0.00,VWS V14.01,2013-02-03 10:14:00,
2013-02-03 05:19:00,8.9,2.6,29.91,WSW,248,0.0,0.0,75,0.00,,---,0.00,VWS V14.01,2013-02-03 10:19:00,
2013-02-03 05:24:00,8.7,2.4,29.91,WSW,248,0.0,0.0,75,0.00,,---,0.00,VWS V14.01,2013-02-03 10:24:00,
2013-02-03 05:29:00,8.9,2.6,29.91,WSW,248,0.0,0.0,75,0.00,,---,0.00,VWS V14.01,2013-02-03 10:29:00,
2013-02-03 05:34:00,8.9,2.6,29.90,WSW,248,0.0,0.0,75,0.00,,---,0.00,VWS V14.01,2013-02-03 10:34:00,
2013-02-03 05:39:00,8.7,2.4,29.90,WSW,248,0.0,0.0,75,0.00,,---,0.00,VWS V14.01,2013-02-03 10:39:00,
2013-02-03 05:44:00,8.9,2.6,29.89,WSW,248,0.0,0.0,75,0.00,,---,0.00,VWS V14.01,2013-02-03 10:44:00,
2013-02-03 05:49:00,9.1,2.8,29.89,WSW,248,0.0,0.0,75,0.00,,---,0.00,VWS V14.01,2013-02-03 10:49:00,
2013-02-03 05:54:00,9.1,2.8,29.90,WSW,248,0.0,0.0,75,0.00,,---,0.00,VWS V14.01,2013-02-03 10:54:00,
2013-02-03 05:59:00,8.9,2.6,29.89,WSW,248,0.0,0.0,75,0.00,,---,0.00,VWS V14.01,2013-02-03 10:59:00,
2013-02-03 06:04:00,8.9,2.6,29.89,WSW,248,0.0,0.0,75,0.00,,---,0.00,VWS V14.01,2013-02-03 11:04:00,
2013-02-03 06:09:00,8.9,2.6,29.89,SW,225,0.6,0.6,75,0.00,,---,0.00,VWS V14.01,2013-02-03 11:09:00,
2013-02-03 06:14:00,8.9,2.6,29.89,SW,225,0.0,0.0,75,0.00,,---,0.00,VWS V14.01,2013-02-03 11:14:00,
2013-02-03 06:19:00,8.9,2.9,29.89,SW,225,0.0,0.0,76,0.00,,---,0.00,VWS V14.01,2013-02-03 11:19:00,
2013-02-03 06:24:00,8.9,2.9,29.89,SSW,202,2.0,2.0,76,0.00,,---,0.00,VWS V14.01,2013-02-03 11:24:00,
2013-02-03 06:29:00,8.9,2.9,29.89,SSW,202,0.0,1.1,76,0.00,,---,0.00,VWS V14.01,2013-02-03 11:29:00,
2013-02-03 06:34:00,8.7,2.7,29.89,SSW,202,0.0,0.0,76,0.00,,---,0.00,VWS V14.01,2013-02-03 11:34:00,
2013-02-03 06:39:00,8.9,2.9,29.89,SSW,202,0.0,0.0,76,0.00,,---,0.00,VWS V14.01,2013-02-03 11:39:00,
2013-02-03 06:44:00,8.9,2.9,29.89,SSW,202,0.0,0.0,76,0.00,,---,0.00,VWS V14.01,2013-02-03 11:44:00,
2013-02-03 06:49:00,9.1,3.1,29.89,SSW,202,0.0,0.0,76,0.00,,---,0.00,VWS V14.01,2013-02-03 11:49:00,
2013-02-03 06:54:00,9.1,3.1,29.89,South,180,0.0,0.0,76,0.00,,---,0.00,VWS V14.01,2013-02-03 11:54:00,
2013-02-03 06:59:00,9.3,3.3,29.89,South,180,0.0,0.0,76,0.00,,---,0.00,VWS V14.01,2013-02-03 11:59:00,
2013-02-03 07:04:00,9.5,3.5,29.89,South,180,0.0,0.0,76,0.00,,---,0.00,VWS V14.01,2013-02-03 12:04:00,
2013-02-03 07:09:00,9.6,3.6,29.90,SSW,202,0.0,0.0,76,0.00,,---,0.00,VWS V14.01,2013-02-03 12:09:00,
2013-02-03 07:14:00,9.6,3.6,29.89,South,180,0.0,0.0,76,0.00,,---,0.00,VWS V14.01,2013-02-03 12:14:00,
2013-02-03 07:19:00,9.6,3.6,29.89,South,180,0.0,0.0,76,0.00,,---,0.00,VWS V14.01,2013-02-03 12:19:00,
2013-02-03 07:24:00,9.6,3.6,29.89,South,180,0.0,0.0,76,0.00,,---,0.00,VWS V14.01,2013-02-03 12:24:00,
2013-02-03 07:29:00,10.0,4.0,29.88,SSW,202,0.0,0.0,76,0.00,,---,0.00,VWS V14.01,2013-02-03 12:29:00,
2013-02-03 07:34:00,10.0,4.0,29.89,SSW,202,0.0,0.0,76,0.00,,---,0.00,VWS V14.01,2013-02-03 12:34:00,
2013-02-03 07:39:00,10.0,4.0,29.89,SSW,202,0.0,0.0,76,0.00,,---,0.00,VWS V14.01,2013-02-03 12:39:00,
2013-02-03 07:44:00,10.0,4.0,29.89,SSW,202,0.0,0.0,76,0.00,,---,0.00,VWS V14.01,2013-02-03 12:44:00,
2013-02-03 07:49:00,10.2,4.2,29.89,SSW,202,0.0,0.0,76,0.00,,---,0.00,VWS V14.01,2013-02-03 12:49:00,
2013-02-03 07:54:00,10.2,4.2,29.89,SW,225,0.0,0.0,76,0.00,,---,0.00,VWS V14.01,2013-02-03 12:54:00,
2013-02-03 07:59:00,10.2,4.2,29.89,SSW,202,0.0,0.0,76,0.00,,---,0.00,VWS V14.01,2013-02-03 12:59:00,
2013-02-03 08:04:00,10.4,4.3,29.89,SW,225,0.0,0.0,76,0.00,,---,0.00,VWS V14.01,2013-02-03 13:04:00,
2013-02-03 08:09:00,10.5,4.4,29.89,SW,225,0.0,0.0,76,0.00,,---,0.00,VWS V14.01,2013-02-03 13:09:00,
2013-02-03 08:14:00,10.5,4.7,29.89,SW,225,0.0,0.0,77,0.00,,---,0.00,VWS V14.01,2013-02-03 13:14:00,
2013-02-03 08:19:00,10.5,4.7,29.88,South,180,1.3,1.3,77,0.00,,---,0.00,VWS V14.01,2013-02-03 13:19:00,
2013-02-03 08:24:00,10.7,4.9,29.89,SW,225,2.2,2.2,77,0.00,,---,0.00,VWS V14.01,2013-02-03 13:24:00,
2013-02-03 08:29:00,10.9,5.1,29.88,SSW,202,1.1,1.1,77,0.00,,---,0.00,VWS V14.01,2013-02-03 13:29:00,
2013-02-03 08:34:00,11.1,5.3,29.89,South,180,0.0,0.0,77,0.00,,---,0.00,VWS V14.01,2013-02-03 13:34:00,
2013-02-03 08:39:00,11.3,5.5,29.89,SSW,202,0.0,0.0,77,0.00,,---,0.00,VWS V14.01,2013-02-03 13:39:00,
2013-02-03 08:44:00,11.4,5.6,29.89,SW,225,2.2,2.2,77,0.00,,---,0.00,VWS V14.01,2013-02-03 13:44:00,
2013-02-03 08:49:00,11.6,5.8,29.89,SW,225,4.0,4.0,77,0.00,,---,0.00,VWS V14.01,2013-02-03 13:49:00,
2013-02-03 08:54:00,11.8,5.7,29.89,SSE,158,0.0,2.0,76,0.00,,---,0.00,VWS V14.01,2013-02-03 13:54:00,
2013-02-03 08:59:00,12.0,5.9,29.89,SW,225,2.0,2.0,76,0.00,,---,0.00,VWS V14.01,2013-02-03 13:59:00,
2013-02-03 09:04:00,12.0,5.9,29.89,SSW,202,4.0,4.0,76,0.00,,---,0.00,VWS V14.01,2013-02-03 14:04:00,
2013-02-03 09:09:00,12.0,5.6,29.89,SW,225,4.4,4.4,75,0.00,,---,0.00,VWS V14.01,2013-02-03 14:09:00,
2013-02-03 09:14:00,12.0,5.6,29.89,SSW,202,8.5,8.5,75,0.00,,---,0.00,VWS V14.01,2013-02-03 14:14:00,
2013-02-03 09:19:00,12.0,5.3,29.89,SW,225,3.3,3.3,74,0.00,,---,0.00,VWS V14.01,2013-02-03 14:19:00,
2013-02-03 09:24:00,12.0,5.3,29.89,WSW,248,2.2,3.5,74,0.00,,---,0.00,VWS V14.01,2013-02-03 14:24:00,
2013-02-03 09:29:00,12.3,5.6,29.88,SW,225,7.6,7.6,74,0.00,,---,0.00,VWS V14.01,2013-02-03 14:29:00,
2013-02-03 09:35:00,12.7,5.7,29.88,SSW,202,8.2,8.2,73,0.00,,---,0.00,VWS V14.01,2013-02-03 14:35:00,
2013-02-03 09:40:00,12.7,5.7,29.88,SW,225,4.4,4.4,73,0.00,,---,0.00,VWS V14.01,2013-02-03 14:40:00,
2013-02-03 09:46:00,12.9,5.6,29.88,SSW,202,4.9,7.3,72,0.00,,---,0.00,VWS V14.01,2013-02-03 14:46:00,
2013-02-03 09:52:00,12.9,5.6,29.88,SW,225,7.3,7.3,72,0.00,,---,0.00,VWS V14.01,2013-02-03 14:52:00,
2013-02-03 09:57:00,12.9,5.6,29.88,SSW,202,7.8,7.8,72,0.00,,---,0.00,VWS V14.01,2013-02-03 14:57:00,
2013-02-03 10:03:00,13.2,6.2,29.88,SSW,202,7.1,7.1,73,0.00,,---,0.00,VWS V14.01,2013-02-03 15:03:00,
2013-02-03 10:08:00,13.2,6.2,29.87,WSW,248,7.3,7.3,73,0.00,,---,0.00,VWS V14.01,2013-02-03 15:08:00,
2013-02-03 10:13:00,13.4,6.4,29.87,SW,225,7.6,7.6,73,0.00,,---,0.00,VWS V14.01,2013-02-03 15:13:00,
2013-02-03 10:18:00,13.8,6.8,29.87,SSW,202,8.2,8.2,73,0.00,,---,0.00,VWS V14.01,2013-02-03 15:18:00,
2013-02-03 10:23:00,13.8,6.8,29.87,SSW,202,8.2,8.2,73,0.00,,---,0.00,VWS V14.01,2013-02-03 15:23:00,
2013-02-03 10:28:00,14.1,7.1,29.87,SSW,202,8.0,8.0,73,0.00,,---,0.00,VWS V14.01,2013-02-03 15:28:00,
2013-02-03 10:33:00,14.3,7.2,29.87,West,270,7.3,8.9,73,0.00,,---,0.00,VWS V14.01,2013-02-03 15:33:00,
2013-02-03 10:38:00,14.5,7.4,29.87,West,270,6.4,6.4,73,0.00,,---,0.00,VWS V14.01,2013-02-03 15:38:00,
2013-02-03 10:43:00,14.7,7.6,29.86,South,180,9.1,9.1,73,0.00,,---,0.00,VWS V14.01,2013-02-03 15:43:00,
2013-02-03 10:48:00,14.7,7.6,29.86,SSW,202,8.5,8.5,73,0.00,,---,0.00,VWS V14.01,2013-02-03 15:48:00,
2013-02-03 10:53:00,14.9,7.8,29.86,SSW,202,2.9,2.9,73,0.00,,---,0.00,VWS V14.01,2013-02-03 15:53:00,
2013-02-03 10:58:00,15.0,7.9,29.86,WSW,248,5.5,5.5,73,0.00,,---,0.00,VWS V14.01,2013-02-03 15:58:00,
2013-02-03 11:03:00,15.2,7.8,29.86,WSW,248,7.8,7.8,72,0.00,,---,0.00,VWS V14.01,2013-02-03 16:03:00,
2013-02-03 11:08:00,15.4,8.0,29.86,SSW,202,8.9,8.9,72,0.00,,---,0.00,VWS V14.01,2013-02-03 16:08:00,
2013-02-03 11:13:00,15.4,8.0,29.86,WSW,248,7.3,7.3,72,0.00,,---,0.00,VWS V14.01,2013-02-03 16:13:00,
2013-02-03 11:18:00,15.6,8.2,29.86,WSW,248,6.0,6.2,72,0.00,,---,0.00,VWS V14.01,2013-02-03 16:18:00,
2013-02-03 11:23:00,15.6,8.5,29.85,WSW,248,1.3,1.3,73,0.00,,---,0.00,VWS V14.01,2013-02-03 16:23:00,
2013-02-03 11:28:00,15.9,8.5,29.86,West,270,5.8,5.8,72,0.00,,---,0.00,VWS V14.01,2013-02-03 16:28:00,
2013-02-03 11:33:00,15.9,8.5,29.85,WSW,248,6.9,6.9,72,0.00,,---,0.00,VWS V14.01,2013-02-03 16:33:00,
2013-02-03 11:38:00,15.9,8.5,29.85,SSW,202,6.7,6.7,72,0.00,,---,0.00,VWS V14.01,2013-02-03 16:38:00,
2013-02-03 11:43:00,16.1,9.0,29.85,West,270,7.8,7.8,73,0.00,,---,0.00,VWS V14.01,2013-02-03 16:43:00,
2013-02-03 11:48:00,16.3,9.2,29.85,West,270,4.0,7.6,73,0.00,,---,0.00,VWS V14.01,2013-02-03 16:48:00,
2013-02-03 11:53:00,16.5,9.4,29.85,WSW,248,8.2,8.2,73,0.00,,---,0.00,VWS V14.01,2013-02-03 16:53:00,
2013-02-03 11:58:00,16.5,9.4,29.85,West,270,6.4,6.4,73,0.00,,---,0.00,VWS V14.01,2013-02-03 16:58:00,
2013-02-03 12:03:00,16.8,9.7,29.84,SW,225,7.6,7.6,73,0.00,,---,0.00,VWS V14.01,2013-02-03 17:03:00,
2013-02-03 12:08:00,17.0,9.9,29.85,NW,315,2.6,2.6,73,0.00,,---,0.00,VWS V14.01,2013-02-03 17:08:00,
2013-02-03 12:13:00,17.2,10.1,29.84,WNW,292,7.6,7.6,73,0.00,,---,0.00,VWS V14.01,2013-02-03 17:13:00,
2013-02-03 12:18:00,16.8,9.4,29.84,SW,225,4.0,6.0,72,0.00,,---,0.00,VWS V14.01,2013-02-03 17:18:00,
2013-02-03 12:23:00,16.8,9.7,29.84,SW,225,8.0,8.0,73,0.00,,---,0.00,VWS V14.01,2013-02-03 17:23:00,
2013-02-03 12:28:00,16.8,9.7,29.84,WSW,248,7.8,7.8,73,0.00,,---,0.00,VWS V14.01,2013-02-03 17:28:00,
2013-02-03 12:33:00,17.2,10.1,29.83,South,180,8.2,8.2,73,0.00,,---,0.00,VWS V14.01,2013-02-03 17:33:00,
2013-02-03 12:38:00,17.2,10.1,29.83,SW,225,7.1,7.1,73,0.00,,---,0.00,VWS V14.01,2013-02-03 17:38:00,
2013-02-03 12:43:00,17.4,10.2,29.83,SSE,158,4.0,4.0,73,0.00,,---,0.00,VWS V14.01,2013-02-03 17:43:00,
2013-02-03 12:48:00,17.4,10.2,29.82,West,270,3.3,7.1,73,0.00,,---,0.00,VWS V14.01,2013-02-03 17:48:00,
2013-02-03 12:53:00,17.6,10.4,29.82,SSW,202,3.5,8.2,73,0.00,,---,0.00,VWS V14.01,2013-02-03 17:53:00,
2013-02-03 12:58:00,17.7,10.5,29.83,SSW,202,6.9,6.9,73,0.00,,---,0.00,VWS V14.01,2013-02-03 17:58:00,
2013-02-03 13:03:00,17.7,10.5,29.82,WSW,248,2.6,8.2,73,0.00,,---,0.00,VWS V14.01,2013-02-03 18:03:00,
2013-02-03 13:08:00,18.1,10.9,29.82,SW,225,6.4,6.4,73,0.00,,---,0.00,VWS V14.01,2013-02-03 18:08:00,
2013-02-03 13:13:00,18.3,11.1,29.82,West,270,2.4,2.4,73,0.00,,---,0.00,VWS V14.01,2013-02-03 18:13:00,
2013-02-03 13:18:00,18.5,11.3,29.82,SSW,202,6.9,6.9,73,0.00,,---,0.00,VWS V14.01,2013-02-03 18:18:00,
2013-02-03 13:23:00,18.6,11.4,29.82,West,270,6.7,6.7,73,0.00,,---,0.00,VWS V14.01,2013-02-03 18:23:00,
2013-02-03 13:28:00,18.8,11.6,29.82,SW,225,6.9,6.9,73,0.00,,---,0.00,VWS V14.01,2013-02-03 18:28:00,
2013-02-03 13:33:00,18.6,11.4,29.82,WSW,248,7.6,7.6,73,0.00,,---,0.00,VWS V14.01,2013-02-03 18:33:00,
2013-02-03 13:38:00,18.6,11.4,29.82,SSW,202,8.5,8.5,73,0.00,,---,0.00,VWS V14.01,2013-02-03 18:38:00,
2013-02-03 13:43:00,18.6,11.7,29.82,WSW,248,3.8,3.8,74,0.00,,---,0.00,VWS V14.01,2013-02-03 18:43:00,
2013-02-03 13:48:00,19.0,12.1,29.82,SSE,158,7.3,7.3,74,0.00,,---,0.00,VWS V14.01,2013-02-03 18:48:00,
2013-02-03 13:53:00,18.8,11.9,29.82,WNW,292,6.0,6.0,74,0.00,,---,0.00,VWS V14.01,2013-02-03 18:53:00,
2013-02-03 13:58:00,18.8,11.9,29.82,SW,225,6.9,6.9,74,0.00,,---,0.00,VWS V14.01,2013-02-03 18:58:00,
2013-02-03 14:03:00,19.0,12.1,29.81,SW,225,8.7,8.7,74,0.00,,---,0.00,VWS V14.01,2013-02-03 19:03:00,
2013-02-03 14:08:00,18.8,11.9,29.82,West,270,5.5,5.5,74,0.00,,---,0.00,VWS V14.01,2013-02-03 19:08:00,
2013-02-03 14:13:00,18.8,11.9,29.81,West,270,7.1,7.1,74,0.00,,---,0.00,VWS V14.01,2013-02-03 19:13:00,
2013-02-03 14:18:00,19.2,12.3,29.81,WSW,248,6.7,6.7,74,0.00,,---,0.00,VWS V14.01,2013-02-03 19:18:00,
2013-02-03 14:23:00,19.0,12.1,29.81,West,270,7.1,7.1,74,0.00,,---,0.00,VWS V14.01,2013-02-03 19:23:00,
2013-02-03 14:28:00,19.0,12.1,29.81,West,270,5.3,5.3,74,0.00,,---,0.00,VWS V14.01,2013-02-03 19:28:00,
2013-02-03 14:33:00,19.2,12.3,29.81,West,270,5.1,5.1,74,0.00,,---,0.00,VWS V14.01,2013-02-03 19:33:00,
2013-02-03 14:38:00,19.2,12.3,29.81,SSW,202,4.2,4.2,74,0.00,,---,0.00,VWS V14.01,2013-02-03 19:38:00,
2013-02-03 14:43:00,19.4,12.5,29.82,SW,225,2.9,2.9,74,0.00,,---,0.00,VWS V14.01,2013-02-03 19:43:00,
2013-02-03 14:48:00,19.5,12.3,29.82,WSW,248,7.1,7.1,73,0.00,,---,0.00,VWS V14.01,2013-02-03 19:48:00,
2013-02-03 14:53:00,19.5,12.3,29.82,SW,225,9.3,9.3,73,0.00,,---,0.00,VWS V14.01,2013-02-03 19:53:00,
2013-02-03 14:58:00,19.5,12.0,29.82,WSW,248,4.2,4.2,72,0.00,,---,0.00,VWS V14.01,2013-02-03 19:58:00,
2013-02-03 15:03:00,19.5,12.0,29.82,WSW,248,6.0,6.4,72,0.00,,---,0.00,VWS V14.01,2013-02-03 20:03:00,
2013-02-03 15:08:00,19.5,12.0,29.82,WSW,248,7.3,7.3,72,0.00,,---,0.00,VWS V14.01,2013-02-03 20:08:00,
2013-02-03 15:13:00,19.5,12.0,29.82,NW,315,1.3,1.3,72,0.00,,---,0.00,VWS V14.01,2013-02-03 20:13:00,
2013-02-03 15:18:00,19.5,12.0,29.83,West,270,7.3,7.3,72,0.00,,---,0.00,VWS V14.01,2013-02-03 20:18:00,
2013-02-03 15:23:00,19.5,12.0,29.83,WNW,292,7.3,7.3,72,0.00,,---,0.00,VWS V14.01,2013-02-03 20:23:00,
2013-02-03 15:28:00,19.5,12.0,29.83,West,270,6.4,6.4,72,0.00,,---,0.00,VWS V14.01,2013-02-03 20:28:00,
2013-02-03 15:33:00,19.5,12.3,29.82,West,270,7.1,7.1,73,0.00,,---,0.00,VWS V14.01,2013-02-03 20:33:00,
2013-02-03 15:38:00,19.4,11.9,29.83,WSW,248,8.0,8.0,72,0.00,,---,0.00,VWS V14.01,2013-02-03 20:38:00,
2013-02-03 15:43:00,19.2,12.0,29.83,West,270,8.0,8.0,73,0.00,,---,0.00,VWS V14.01,2013-02-03 20:43:00,
2013-02-03 15:49:00,19.2,12.0,29.83,WSW,248,8.2,8.2,73,0.00,,---,0.00,VWS V14.01,2013-02-03 20:49:00,
2013-02-03 15:54:00,19.4,12.5,29.83,WSW,248,6.0,6.0,74,0.00,,---,0.00,VWS V14.01,2013-02-03 20:54:00,
2013-02-03 15:59:00,19.5,12.6,29.83,West,270,7.1,7.1,74,0.00,,---,0.00,VWS V14.01,2013-02-03 20:59:00,
2013-02-03 16:04:00,19.5,12.3,29.84,WSW,248,9.3,9.3,73,0.00,,---,0.00,VWS V14.01,2013-02-03 21:04:00,
2013-02-03 16:09:00,19.4,11.9,29.84,SW,225,7.8,8.7,72,0.00,,---,0.00,VWS V14.01,2013-02-03 21:09:00,
2013-02-03 16:14:00,19.2,11.7,29.84,SW,225,6.7,6.7,72,0.00,,---,0.00,VWS V14.01,2013-02-03 21:14:00,
2013-02-03 16:19:00,19.2,11.7,29.84,WSW,248,8.2,8.2,72,0.00,,---,0.00,VWS V14.01,2013-02-03 21:19:00,
2013-02-03 16:24:00,19.2,12.0,29.84,West,270,8.2,8.2,73,0.00,,---,0.00,VWS V14.01,2013-02-03 21:24:00,
2013-02-03 16:29:00,19.2,12.0,29.84,North,0,1.3,1.3,73,0.00,,---,0.00,VWS V14.01,2013-02-03 21:29:00,
2013-02-03 16:34:00,19.2,12.0,29.84,West,270,3.8,3.8,73,0.00,,---,0.00,VWS V14.01,2013-02-03 21:34:00,
2013-02-03 16:39:00,19.4,11.9,29.84,West,270,5.8,8.2,72,0.00,,---,0.00,VWS V14.01,2013-02-03 21:39:00,
2013-02-03 16:44:00,19.4,11.9,29.84,WSW,248,1.7,1.7,72,0.00,,---,0.00,VWS V14.01,2013-02-03 21:44:00,
2013-02-03 16:49:00,19.2,11.7,29.85,West,270,5.3,5.3,72,0.00,,---,0.00,VWS V14.01,2013-02-03 21:49:00,
2013-02-03 16:54:00,19.2,11.7,29.85,West,270,1.7,3.3,72,0.00,,---,0.00,VWS V14.01,2013-02-03 21:54:00,
2013-02-03 16:59:00,19.2,12.0,29.85,WSW,248,8.5,8.5,73,0.00,,---,0.00,VWS V14.01,2013-02-03 21:59:00,
2013-02-03 17:04:00,19.2,12.0,29.85,West,270,6.0,6.0,73,0.00,,---,0.00,VWS V14.01,2013-02-03 22:04:00,
2013-02-03 17:09:00,19.0,11.8,29.85,West,270,3.1,3.1,73,0.00,,---,0.00,VWS V14.01,2013-02-03 22:09:00,
2013-02-03 17:14:00,19.0,12.1,29.85,WSW,248,7.8,7.8,74,0.00,,---,0.00,VWS V14.01,2013-02-03 22:14:00,
2013-02-03 17:19:00,18.8,12.2,29.85,WSW,248,3.3,3.3,75,0.00,,---,0.00,VWS V14.01,2013-02-03 22:19:00,
2013-02-03 17:24:00,18.6,12.0,29.86,West,270,2.9,8.0,75,0.00,,---,0.00,VWS V14.01,2013-02-03 22:24:00,
2013-02-03 17:29:00,18.6,12.0,29.86,NE,45,5.1,5.1,75,0.00,,---,0.00,VWS V14.01,2013-02-03 22:29:00,
2013-02-03 17:34:00,18.6,12.0,29.86,West,270,4.4,4.4,75,0.00,,---,0.00,VWS V14.01,2013-02-03 22:34:00,
2013-02-03 17:39:00,18.5,11.6,29.86,West,270,5.3,6.7,74,0.00,,---,0.00,VWS V14.01,2013-02-03 22:39:00,
2013-02-03 17:44:00,18.5,11.3,29.87,WSW,248,7.8,7.8,73,0.00,,---,0.00,VWS V14.01,2013-02-03 22:44:00,
2013-02-03 17:49:00,18.5,11.3,29.87,NNW,338,7.8,7.8,73,0.00,,---,0.00,VWS V14.01,2013-02-03 22:49:00,
2013-02-03 17:54:00,18.5,11.3,29.87,West,270,3.1,3.8,73,0.00,,---,0.00,VWS V14.01,2013-02-03 22:54:00,
2013-02-03 17:59:00,18.5,11.3,29.87,WSW,248,7.3,7.3,73,0.00,,---,0.00,VWS V14.01,2013-02-03 22:59:00,
2013-02-03 18:04:00,18.3,11.1,29.87,West,270,2.2,2.2,73,0.00,,---,0.00,VWS V14.01,2013-02-03 23:04:00,
2013-02-03 18:09:00,18.3,10.8,29.88,West,270,5.1,5.1,72,0.00,,---,0.00,VWS V14.01,2013-02-03 23:09:00,
2013-02-03 18:14:00,18.3,10.8,29.88,SW,225,7.8,7.8,72,0.00,,---,0.00,VWS V14.01,2013-02-03 23:14:00,
2013-02-03 18:19:00,18.3,10.8,29.88,West,270,2.2,2.2,72,0.00,,---,0.00,VWS V14.01,2013-02-03 23:19:00,
2013-02-03 18:24:00,18.1,10.3,29.88,WSW,248,1.5,8.0,71,0.00,,---,0.00,VWS V14.01,2013-02-03 23:24:00,
2013-02-03 18:29:00,17.9,9.8,29.89,WSW,248,6.9,6.9,70,0.00,,---,0.00,VWS V14.01,2013-02-03 23:29:00,
2013-02-03 18:34:00,17.7,9.6,29.89,NW,315,2.0,2.0,70,0.00,,---,0.00,VWS V14.01,2013-02-03 23:34:00,
2013-02-03 18:39:00,17.4,9.0,29.89,WSW,248,2.0,5.1,69,0.00,,---,0.00,VWS V14.01,2013-02-03 23:39:00,
2013-02-03 18:44:00,17.2,8.8,29.90,West,270,1.3,1.3,69,0.00,,---,0.00,VWS V14.01,2013-02-03 23:44:00,
2013-02-03 18:49:00,17.2,8.8,29.90,WSW,248,2.2,2.2,69,0.00,,---,0.00,VWS V14.01,2013-02-03 23:49:00,
2013-02-03 18:54:00,16.8,8.1,29.90,West,270,7.8,7.8,68,0.00,,---,0.00,VWS V14.01,2013-02-03 23:54:00,
2013-02-03 18:59:00,16.8,8.1,29.90,WSW,248,2.6,2.6,68,0.00,,---,0.00,VWS V14.01,2013-02-03 23:59:00,
2013-02-03 19:04:00,16.7,8.0,29.91,West,270,4.2,4.2,68,0.00,,---,0.00,VWS V14.01,2013-02-04 00:04:00,
2013-02-03 19:09:00,16.5,7.8,29.91,WSW,248,2.4,2.4,68,0.00,,---,0.00,VWS V14.01,2013-02-04 00:09:00,
2013-02-03 19:15:00,16.3,7.6,29.91,WSW,248,3.5,3.5,68,0.00,,---,0.00,VWS V14.01,2013-02-04 00:15:00,
2013-02-03 19:20:00,16.3,7.3,29.92,West,270,2.6,7.6,67,0.00,,---,0.00,VWS V14.01,2013-02-04 00:20:00,
2013-02-03 19:25:00,16.1,7.1,29.92,West,270,2.9,2.9,67,0.00,,---,0.00,VWS V14.01,2013-02-04 00:25:00,
2013-02-03 19:30:00,15.9,6.9,29.92,West,270,0.0,2.0,67,0.00,,---,0.00,VWS V14.01,2013-02-04 00:30:00,
2013-02-03 19:36:00,15.8,6.8,29.92,WSW,248,0.0,0.0,67,0.00,,---,0.00,VWS V14.01,2013-02-04 00:36:00,
2013-02-03 19:41:00,15.6,6.6,29.92,WSW,248,5.1,5.1,67,0.00,,---,0.00,VWS V14.01,2013-02-04 00:41:00,
2013-02-03 19:46:00,15.6,6.6,29.92,NW,315,2.2,7.3,67,0.00,,---,0.00,VWS V14.01,2013-02-04 00:46:00,
2013-02-03 19:51:00,15.6,6.9,29.92,West,270,4.0,4.0,68,0.00,,---,0.00,VWS V14.01,2013-02-04 00:51:00,
2013-02-03 19:56:00,15.6,6.9,29.92,WSW,248,6.0,8.2,68,0.00,,---,0.00,VWS V14.01,2013-02-04 00:56:00,
2013-02-03 20:02:00,15.4,6.7,29.92,WSW,248,2.2,4.9,68,0.00,,---,0.00,VWS V14.01,2013-02-04 01:02:00,
2013-02-03 20:07:00,15.4,7.1,29.92,WSW,248,4.4,4.4,69,0.00,,---,0.00,VWS V14.01,2013-02-04 01:07:00,
2013-02-03 20:12:00,15.2,6.9,29.92,West,270,2.2,2.2,69,0.00,,---,0.00,VWS V14.01,2013-02-04 01:12:00,
2013-02-03 20:17:00,15.2,6.9,29.92,WSW,248,2.9,2.9,69,0.00,,---,0.00,VWS V14.01,2013-02-04 01:17:00,
2013-02-03 20:22:00,15.0,6.7,29.92,WSW,248,3.3,3.3,69,0.00,,---,0.00,VWS V14.01,2013-02-04 01:22:00,
2013-02-03 20:27:00,15.0,6.7,29.92,WSW,248,1.1,1.1,69,0.00,,---,0.00,VWS V14.01,2013-02-04 01:27:00,
2013-02-03 20:32:00,14.9,6.6,29.92,West,270,2.6,4.9,69,0.00,,---,0.00,VWS V14.01,2013-02-04 01:32:00,
2013-02-03 20:37:00,14.7,6.4,29.92,WSW,248,3.8,3.8,69,0.00,,---,0.00,VWS V14.01,2013-02-04 01:37:00,
2013-02-03 20:42:00,14.7,6.7,29.92,West,270,3.1,3.1,70,0.00,,---,0.00,VWS V14.01,2013-02-04 01:42:00,
2013-02-03 20:47:00,14.7,6.7,29.92,WSW,248,2.2,2.2,70,0.00,,---,0.00,VWS V14.01,2013-02-04 01:47:00,
2013-02-03 20:52:00,14.7,6.7,29.93,West,270,1.5,2.2,70,0.00,,---,0.00,VWS V14.01,2013-02-04 01:52:00,
2013-02-03 20:57:00,14.5,6.5,29.93,West,270,1.1,1.1,70,0.00,,---,0.00,VWS V14.01,2013-02-04 01:57:00,
2013-02-03 21:02:00,14.5,6.5,29.93,West,270,2.2,4.6,70,0.00,,---,0.00,VWS V14.01,2013-02-04 02:02:00,
2013-02-03 21:07:00,14.3,6.3,29.93,West,270,0.0,3.1,70,0.00,,---,0.00,VWS V14.01,2013-02-04 02:07:00,
2013-02-03 21:12:00,14.3,6.6,29.93,WSW,248,4.4,4.4,71,0.00,,---,0.00,VWS V14.01,2013-02-04 02:12:00,
2013-02-03 21:17:00,14.3,6.6,29.94,WSW,248,3.3,3.3,71,0.00,,---,0.00,VWS V14.01,2013-02-04 02:17:00,
2013-02-03 21:22:00,14.1,6.4,29.94,SW,225,3.3,3.3,71,0.00,,---,0.00,VWS V14.01,2013-02-04 02:22:00,
2013-02-03 21:27:00,14.1,6.4,29.93,WSW,248,0.8,0.8,71,0.00,,---,0.00,VWS V14.01,2013-02-04 02:27:00,
2013-02-03 21:32:00,14.1,6.4,29.94,SW,225,3.1,3.1,71,0.00,,---,0.00,VWS V14.01,2013-02-04 02:32:00,
2013-02-03 21:37:00,14.1,6.4,29.94,SW,225,3.5,3.5,71,0.00,,---,0.00,VWS V14.01,2013-02-04 02:37:00,
2013-02-03 21:42:00,13.8,6.2,29.94,SW,225,4.0,4.0,71,0.00,,---,0.00,VWS V14.01,2013-02-04 02:42:00,
2013-02-03 21:47:00,13.8,6.5,29.95,SW,225,2.9,2.9,72,0.00,,---,0.00,VWS V14.01,2013-02-04 02:47:00,
2013-02-03 21:52:00,13.8,6.5,29.95,SW,225,4.6,4.6,72,0.00,,---,0.00,VWS V14.01,2013-02-04 02:52:00,
2013-02-03 21:57:00,13.8,6.5,29.95,SW,225,2.9,2.9,72,0.00,,---,0.00,VWS V14.01,2013-02-04 02:57:00,
2013-02-03 22:02:00,13.8,6.5,29.94,WSW,248,6.2,6.2,72,0.00,,---,0.00,VWS V14.01,2013-02-04 03:02:00,
2013-02-03 22:07:00,13.8,6.8,29.95,SW,225,2.6,2.6,73,0.00,,---,0.00,VWS V14.01,2013-02-04 03:07:00,
2013-02-03 22:12:00,13.8,6.8,29.95,West,270,8.2,8.2,73,0.00,,---,0.00,VWS V14.01,2013-02-04 03:12:00,
2013-02-03 22:17:00,13.8,6.8,29.95,West,270,1.1,1.1,73,0.00,,---,0.00,VWS V14.01,2013-02-04 03:17:00,
2013-02-03 22:22:00,13.8,6.8,29.95,West,270,2.9,2.9,73,0.00,,---,0.00,VWS V14.01,2013-02-04 03:22:00,
2013-02-03 22:27:00,13.8,6.8,29.95,SW,225,2.0,2.0,73,0.00,,---,0.00,VWS V14.01,2013-02-04 03:27:00,
2013-02-03 22:33:00,13.8,6.8,29.95,SW,225,5.5,5.5,73,0.00,,---,0.00,VWS V14.01,2013-02-04 03:33:00,
2013-02-03 22:38:00,13.8,7.1,29.95,WSW,248,6.4,6.4,74,0.00,,---,0.00,VWS V14.01,2013-02-04 03:38:00,
2013-02-03 22:43:00,13.8,7.1,29.95,WSW,248,2.2,2.2,74,0.00,,---,0.00,VWS V14.01,2013-02-04 03:43:00,
2013-02-03 22:48:00,13.8,7.1,29.95,West,270,3.5,3.5,74,0.00,,---,0.00,VWS V14.01,2013-02-04 03:48:00,
2013-02-03 22:53:00,13.8,7.1,29.95,West,270,2.6,2.6,74,0.00,,---,0.00,VWS V14.01,2013-02-04 03:53:00,
2013-02-03 22:59:00,13.8,7.1,29.95,West,270,1.5,1.5,74,0.00,,---,0.00,VWS V14.01,2013-02-04 03:59:00,
2013-02-03 23:04:00,13.8,7.1,29.95,West,270,3.3,3.3,74,0.00,,---,0.00,VWS V14.01,2013-02-04 04:04:00,
2013-02-03 23:09:00,13.8,7.1,29.95,West,270,2.6,2.6,74,0.00,,---,0.00,VWS V14.01,2013-02-04 04:09:00,
2013-02-03 23:14:00,13.8,7.4,29.95,West,270,2.6,2.6,75,0.00,,---,0.00,VWS V14.01,2013-02-04 04:14:00,
2013-02-03 23:19:00,13.8,7.4,29.95,WSW,248,2.0,5.5,75,0.00,,---,0.00,VWS V14.01,2013-02-04 04:19:00,
2013-02-03 23:24:00,13.8,7.4,29.95,SW,225,4.0,4.0,75,0.00,,---,0.00,VWS V14.01,2013-02-04 04:24:00,
2013-02-03 23:29:00,13.8,7.4,29.95,West,270,2.0,2.0,75,0.00,,---,0.00,VWS V14.01,2013-02-04 04:29:00,
2013-02-03 23:34:00,13.8,7.4,29.95,WSW,248,3.5,3.5,75,0.00,,---,0.00,VWS V14.01,2013-02-04 04:34:00,
2013-02-03 23:39:00,13.8,7.4,29.95,WSW,248,0.0,2.0,75,0.00,,---,0.00,VWS V14.01,2013-02-04 04:39:00,
2013-02-03 23:44:00,13.8,7.7,29.95,SW,225,2.9,2.9,76,0.00,,---,0.00,VWS V14.01,2013-02-04 04:44:00,
2013-02-03 23:49:00,13.8,7.7,29.95,West,270,1.5,1.5,76,0.00,,---,0.00,VWS V14.01,2013-02-04 04:49:00,
2013-02-03 23:54:00,13.8,7.7,29.95,WSW,248,3.8,4.2,76,0.00,,---,0.00,VWS V14.01,2013-02-04 04:54:00,
2013-02-03 23:59:00,13.6,7.5,29.95,WSW,248,2.2,2.2,76,0.00,,---,0.00,VWS V14.01,2013-02-04 04:59:00,